Ana Sayfa
METAR-TAF:

METAR-TAF

Havaalanları :

Hugoton, Kansas, Amerika Birleşik Devletleri

Enlem: 37-09-47N, Boylam: 101-22-14W, yükseklik: 955 m

Güncel hava durumu gözlemi

Rapor saat 16:55 UTC de 13 dakika önce yapıldı.
Rüzgar kuzeydan 15 kt ve 23 kt'a kadar ani rüzgarlar
Sıcaklık 4°C
Nem 87%
Basınç 1011 hPa
Görüş mesafesi: 16.1 km
1000 ft yükseklikte çok bulutlu

METAR: KHQG 021655Z AUTO 35015G23KT 10SM OVC010 04/02 A2985 RMK AO2 T00430015

Saat: 12:08 (17:08 UTC)


TAF: eksik

4.000'den fazla havaalanı için hava durumu gözlemleri ve tahminleri (METAR ve TAF raporları).

Kullanılabilir istasyonlar harita üzerinde sarı ve kırmızı noktalarla gösterilir.

İstasyonun adını görmek için fareyi noktanın üzerinde gezdirin.

Sonrasında hava gözlem ve tahminlerini görmek için tıklayın.

Haritayı değiştirmek için: yaklaştırmak için siyah artı işaretli yeşil düğmeye ve uzaklaştırmak için de eksi işaretli düğmeye hızla tıklayın; bitişik haritalar için yeşil okları kullanın.


METAR-TAF: